• Join FlightAware (Why Join?)
  • Login
  • US Flag 
06:33PM EDT


 

Airport Tracker/Info


-or-


 

Live Flight TrackerFlight Track Log ✈ DAL6232 ✈ 02-Aug-2013 ✈ KBUF - KJFK

Flight Track Log - Related Links

Times and Time Zones

All times are in EDT time to prevent confusion due to time zone crossing. See the DAL6232 flight status page for this flight to view local times or setup timezone preferences in your user account.

Time Position Orientation Groundspeed Altitude Reporting Facility
EDT Latitude Longitude Course Direction KTS MPH feet Rate Location/Type
06:08AM 42.9333 -78.7500 176° South 157 181 1,500  Level Buffalo TRACON
06:10AM 42.8583 -78.7422 176° South 182 209 5,800 2,340 Climbing Cleveland Center
06:11AM 42.8586 -78.6403 90° East 235 270 8,200 2,280 Climbing Cleveland Center
06:12AM 42.8569 -78.5383 91° East 266 306 10,400 2,400 Climbing Cleveland Center
06:13AM 42.8547 -78.4139 91° East 299 344 13,100 2,520 Climbing Cleveland Center
06:14AM 42.8481 -78.2839 94° East 323 372 15,600 2,400 Climbing Cleveland Center
06:15AM 42.8472 -78.1506 90° East 341 392 17,900 2,220 Climbing Cleveland Center
06:16AM 42.8422 -78.0064 93° East 355 409 20,100 1,500 Climbing Cleveland Center
06:17AM 42.8386 -77.8592 92° East 373 429 21,000 420 Climbing Cleveland Center
06:18AM 42.8328 -77.7011 93° East 398 458 21,000  Level Cleveland Center
06:19AM 42.8308 -77.5425 91° East 409 471 21,000  Level Cleveland Center
06:20AM 42.8286 -77.3839 91° East 415 478 21,000  Level Cleveland Center
06:22AM 42.8175 -77.0008 92° East 424 488 21,000  Level Boston Center
06:23AM 42.7647 -76.8583 117° Southeast 409 471 21,000  Level Boston Center
06:24AM 42.7031 -76.7267 122° Southeast 404 465 21,000  Level Boston Center
06:25AM 42.6436 -76.5900 121° Southeast 414 476 21,000  Level Boston Center
06:26AM 42.5836 -76.4589 122° Southeast 419 482 21,000  Level Boston Center
06:27AM 42.5178 -76.3139 122° Southeast 419 482 21,000  Level Boston Center
06:28AM 42.4633 -76.1922 121° Southeast 425 489 21,000  Level Boston Center
06:29AM 42.4150 -76.0822 121° Southeast 425 489 21,000  Level Boston Center
06:30AM 42.3428 -75.9236 122° Southeast 420 483 21,000  Level Boston Center
06:31AM 42.2822 -75.7883 121° Southeast 420 483 21,000  Level Boston Center
06:32AM 42.2214 -75.6561 122° Southeast 420 483 21,000  Level Boston Center
06:33AM 42.1586 -75.5183 122° Southeast 420 483 21,000  Level Boston Center
06:34AM 42.0994 -75.3894 122° Southeast 420 483 21,000  Level Boston Center
06:35AM 42.0467 -75.2500 117° Southeast 420 483 21,000  Level Boston Center
06:36AM 42.0086 -75.1000 109° East 415 478 21,000  Level Boston Center
06:37AM 41.9758 -74.9814 110° East 420 483 21,000  Level Boston Center
06:38AM 41.9297 -74.8036 109° East 420 483 21,000  Level Boston Center
06:39AM 41.8989 -74.6800 108° East 420 483 21,000  Level Boston Center
06:40AM 41.8503 -74.5025 110° East 420 483 21,000  Level Boston Center
06:41AM 41.8031 -74.3422 112° Southeast 420 483 21,000 -60 Level Boston Center
06:42AM 41.7678 -74.1881 107° East 420 483 20,900 -300 Descending Boston Center
06:45AM 41.5272 -74.0908 163° South 353 406 20,000 -300 Descending New York Center
06:46AM 41.4236 -74.0719 172° South 365 420 20,000  Level New York Center
06:47AM 41.3331 -74.1061 196° South 342 394 20,000  Level New York Center
06:48AM 41.2542 -74.1767 214° Southwest 331 381 20,000  Level New York Center
06:49AM 41.1772 -74.2417 212° Southwest 343 395 20,000  Level New York Center
06:50AM 41.1025 -74.3011 211° Southwest 335 386 20,000 -300 Level New York Center
06:51AM 41.0189 -74.3158 188° South 322 371 19,500 -540 Descending New York Center
06:52AM 40.9508 -74.2217 134° Southeast 278 320 19,000 -420 Descending New York Center
06:53AM 40.8717 -74.1492 145° Southeast 316 364 18,700 -720 Descending New York Center
06:54AM 40.7961 -74.0961 152° Southeast 341 392 17,600 -1,200 Descending New York Center
06:55AM 40.7017 -74.0422 157° South 337 388 16,400 -1,320 Descending New York Center
06:56AM 40.6319 -74.0006 156° South 322 371 15,000 -1,560 Descending New York Center
06:57AM 40.5439 -73.9472 155° Southeast 310 357 13,300 -1,740 Descending New York Center
06:58AM 40.4719 -73.9167 162° South 310 357 11,500 -1,740 Descending New York Center
06:59AM 40.3875 -73.8772 160° South 294 338 9,900 -1,740 Descending New York Center
07:00AM 40.3225 -73.8064 140° Southeast 294 338 8,200 -1,620 Descending New York Center
07:01AM 40.2658 -73.7414 139° Southeast 307 353 6,700 -1,680 Descending New York Center
07:02AM 40.2744 -73.6492 83° East 232 267 4,900 -1,440 Descending New York Center
07:03AM 40.3358 -73.6081 27° Northeast 212 244 3,900 -960 Descending New York Center
07:04AM 40.4058 -73.5567 29° Northeast 246 283 3,000 -420 Descending New York Center
07:05AM 40.4708 -73.5483 North 253 291 3,100  Climbing New York Center
07:06AM 40.5353 -73.5456 North 246 283 3,000 -300 Descending New York Center
07:07AM 40.5833 -73.6167 312° West 176 203 2,500 -540 Descending New York TRACON
07:08AM 40.6000 -73.6667 294° West 161 185 1,800 -780 Descending New York TRACON
07:09AM 40.6167 -73.7167 294° West 129 148 1,100 -720 Descending New York TRACON
07:10AM 40.6333 -73.7500 303° West 130 150 400 -720 Descending New York TRACON
07:12AM 40.6333 -73.7667 326° Northwest  Level FlightAware Approximate
07:19AM 40.6398 -73.7789 326° Northwest  Level Estimated